Time;durP1;ratioP1;P1;durP2;ratioP2;P2;SDS_P1;SDS_P2;PMS_P1;PMS_P2;Temp;Humidity;BMP_temperature;BMP_pressure;BME280_temperature;BME280_humidity;BME280_pressure;Samples;Min_cycle;Max_cycle;Signal;HPM_P1;HPM_P2
2021/12/04 00:00:08;;;;;;;15.37;6.40;;;;;;;2.64;54.80;99732.53;4441067;32;34099;-77
2021/12/04 00:02:40;;;;;;;15.07;6.37;;;;;;;2.60;54.65;99728.44;4441003;32;32054;-79
2021/12/04 00:05:08;;;;;;;15.45;7.07;;;;;;;2.60;55.03;99720.31;4439897;32;34416;-74
2021/12/04 00:07:38;;;;;;;12.18;6.55;;;;;;;2.65;55.04;99722.53;4453001;32;34410;-72
2021/12/04 00:10:07;;;;;;;14.10;6.32;;;;;;;2.51;55.45;99723.12;4454448;32;33942;-73
2021/12/04 00:12:35;;;;;;;15.50;5.90;;;;;;;2.56;55.10;99713.53;4453445;32;34212;-73
2021/12/04 00:15:03;;;;;;;12.55;6.10;;;;;;;2.46;55.07;99707.34;4427036;32;33006;-73
2021/12/04 00:17:30;;;;;;;12.85;6.40;;;;;;;2.55;54.79;99703.69;4442818;32;33965;-73
2021/12/04 00:19:58;;;;;;;11.73;6.45;;;;;;;2.53;54.96;99713.00;4442885;32;32442;-73
2021/12/04 00:22:26;;;;;;;13.05;4.95;;;;;;;2.43;55.34;99707.66;4443143;32;31745;-73
2021/12/04 00:24:53;;;;;;;11.05;4.93;;;;;;;2.51;55.08;99702.31;4443210;32;34551;-73
2021/12/04 00:27:21;;;;;;;14.32;5.47;;;;;;;2.36;55.49;99701.16;4443059;32;33029;-73
2021/12/04 00:29:49;;;;;;;12.30;5.47;;;;;;;2.49;55.22;99703.47;4456110;32;33673;-73
2021/12/04 00:32:27;;;;;;;12.63;5.97;;;;;;;2.46;55.18;99696.53;4442817;32;31829;-73
2021/12/04 00:51:16;;;;;;;11.80;5.53;;;;;;;2.17;55.44;99685.94;4444744;32;32309;-73
2021/12/04 00:53:44;;;;;;;12.05;5.78;;;;;;;2.23;55.34;99690.72;4442816;32;31946;-73
2021/12/04 00:56:11;;;;;;;12.05;5.57;;;;;;;2.26;55.42;99693.12;4443161;32;33376;-73
2021/12/04 00:58:39;;;;;;;12.50;5.30;;;;;;;2.10;56.04;99690.28;4442999;32;34138;-73
2021/12/04 01:01:07;;;;;;;13.32;6.00;;;;;;;2.15;55.58;99687.94;4442752;32;32393;-73
2021/12/04 01:03:35;;;;;;;11.98;6.22;;;;;;;2.16;55.65;99686.09;4442735;32;32509;-73
2021/12/04 01:06:05;;;;;;;9.63;4.65;;;;;;;1.93;56.02;99696.56;4455682;32;34229;-73
2021/12/04 01:08:33;;;;;;;10.85;4.57;;;;;;;2.08;55.55;99688.72;4469388;32;34193;-73
2021/12/04 01:11:02;;;;;;;13.20;4.93;;;;;;;2.14;55.31;99686.25;4442668;32;33873;-74
2021/12/04 01:13:31;;;;;;;14.30;5.22;;;;;;;2.11;55.63;99685.72;4455627;32;34034;-73
2021/12/04 01:15:59;;;;;;;12.20;5.80;;;;;;;2.08;55.60;99684.16;4442352;32;33396;-73
2021/12/04 01:18:26;;;;;;;12.95;5.93;;;;;;;2.07;55.88;99687.87;4442454;32;35211;-73
2021/12/04 01:20:55;;;;;;;10.60;5.93;;;;;;;2.15;55.69;99696.06;4442867;32;33977;-73
2021/12/04 01:23:22;;;;;;;13.38;6.35;;;;;;;2.02;55.83;99679.38;4442575;32;32492;-73
2021/12/04 01:25:50;;;;;;;18.23;7.57;;;;;;;2.05;55.93;99689.03;4442819;32;33952;-73
2021/12/04 01:28:18;;;;;;;17.52;7.62;;;;;;;2.04;55.78;99690.88;4444327;32;33049;-74
2021/12/04 01:30:45;;;;;;;15.80;7.07;;;;;;;1.98;55.67;99695.06;4444300;32;33848;-73
2021/12/04 01:33:13;;;;;;;13.35;7.12;;;;;;;1.75;55.94;99684.88;4444326;32;31886;-73
2021/12/04 01:35:41;;;;;;;12.67;7.07;;;;;;;1.93;55.60;99694.72;4444419;32;33520;-73
2021/12/04 01:38:10;;;;;;;19.05;8.73;;;;;;;1.98;55.41;99686.09;4444165;32;32959;-73
2021/12/04 01:40:38;;;;;;;14.75;7.85;;;;;;;1.89;55.65;99684.34;4444361;32;34718;-73
2021/12/04 01:43:07;;;;;;;13.62;6.90;;;;;;;1.86;55.84;99677.38;4457228;32;33438;-73
2021/12/04 01:45:35;;;;;;;12.75;6.75;;;;;;;1.76;55.83;99682.00;4431691;32;32140;-73
2021/12/04 01:48:03;;;;;;;13.98;6.87;;;;;;;1.72;55.95;99679.75;4471070;32;34292;-73
2021/12/04 01:50:33;;;;;;;15.70;7.68;;;;;;;1.71;55.95;99694.28;4470942;32;33883;-73
2021/12/04 01:53:02;;;;;;;11.75;5.90;;;;;;;1.76;55.92;99686.56;4431634;32;32690;-73
2021/12/04 01:55:32;;;;;;;14.52;6.60;;;;;;;1.87;55.77;99689.06;4444192;32;33053;-73
2021/12/04 01:58:03;;;;;;;14.63;5.93;;;;;;;1.73;55.96;99666.09;4444154;32;33018;-73
2021/12/04 02:00:36;;;;;;;12.87;6.23;;;;;;;1.82;55.79;99685.97;4444315;32;34018;-73
2021/12/04 02:03:07;;;;;;;14.10;6.40;;;;;;;1.82;55.71;99667.88;4457256;32;34169;-74
2021/12/04 02:05:39;;;;;;;13.77;6.57;;;;;;;1.79;55.54;99659.22;4444410;32;32225;-73
2021/12/04 02:08:08;;;;;;;14.77;6.43;;;;;;;1.83;55.50;99660.59;4444453;32;34263;-73
2021/12/04 02:10:36;;;;;;;13.18;5.87;;;;;;;1.91;55.26;99664.25;4444202;32;33184;-73
2021/12/04 02:13:04;;;;;;;13.45;5.65;;;;;;;1.78;55.40;99662.91;4431322;32;31766;-73
2021/12/04 02:15:31;;;;;;;14.50;6.63;;;;;;;1.51;55.91;99670.06;4456912;32;34643;-73
2021/12/04 02:18:01;;;;;;;13.30;5.60;;;;;;;1.62;55.76;99655.47;4444060;32;35528;-73
2021/12/04 02:20:29;;;;;;;12.37;6.53;;;;;;;1.71;55.66;99648.28;4444435;32;33859;-74
2021/12/04 02:22:57;;;;;;;15.47;6.13;;;;;;;1.70;55.75;99649.31;4457051;32;34213;-73
2021/12/04 02:25:24;;;;;;;13.65;7.00;;;;;;;1.66;55.83;99648.75;4456720;32;33295;-73
2021/12/04 02:27:52;;;;;;;12.13;6.50;;;;;;;1.62;55.90;99647.38;4443960;32;34745;-73
2021/12/04 02:30:25;;;;;;;12.80;6.27;;;;;;;1.65;55.91;99647.06;4470431;32;33893;-73
2021/12/04 02:32:53;;;;;;;12.37;6.28;;;;;;;1.56;56.40;99635.31;4456872;32;33476;-73
2021/12/04 02:35:22;;;;;;;11.43;6.12;;;;;;;1.65;56.17;99628.97;4444040;32;33633;-73
2021/12/04 02:37:49;;;;;;;14.25;6.22;;;;;;;1.67;55.96;99634.22;4443539;32;33956;-73
2021/12/04 02:40:20;;;;;;;10.40;5.68;;;;;;;1.52;56.10;99631.19;4444047;32;34059;-73
2021/12/04 02:42:49;;;;;;;10.38;5.30;;;;;;;1.67;55.80;99634.22;4443895;32;34069;-73
2021/12/04 02:45:18;;;;;;;12.13;5.13;;;;;;;1.59;55.96;99631.44;4444115;32;33703;-73
2021/12/04 02:47:45;;;;;;;13.50;6.05;;;;;;;1.55;56.06;99622.78;4444194;32;34501;-73
2021/12/04 02:50:13;;;;;;;13.87;6.10;;;;;;;1.46;56.10;99614.72;4443831;32;34803;-73
2021/12/04 02:52:42;;;;;;;14.95;6.53;;;;;;;1.51;56.09;99625.94;4456731;32;33462;-73
2021/12/04 02:55:10;;;;;;;16.58;8.25;;;;;;;1.47;56.41;99632.66;4456509;32;33740;-73
2021/12/04 02:57:44;;;;;;;15.87;8.70;;;;;;;1.60;56.16;99623.16;4443545;32;32978;-73
2021/12/04 03:00:19;;;;;;;12.97;6.63;;;;;;;1.57;55.98;99628.03;4457565;32;33499;-73
2021/12/04 03:02:47;;;;;;;12.15;6.00;;;;;;;1.47;56.07;99633.50;4443792;32;33166;-72
2021/12/04 03:05:21;;;;;;;17.07;7.10;;;;;;;1.40;55.91;99634.25;4456835;32;33876;-73
2021/12/04 03:07:50;;;;;;;17.90;8.85;;;;;;;1.48;55.67;99645.19;4444417;32;32208;-73
2021/12/04 03:10:18;;;;;;;16.17;7.50;;;;;;;1.47;55.94;99633.50;4443547;32;32504;-73
2021/12/04 03:12:45;;;;;;;16.53;6.90;;;;;;;1.41;56.04;99638.66;4443834;32;33375;-73
2021/12/04 03:15:15;;;;;;;16.45;7.85;;;;;;;1.46;56.12;99631.81;4442975;32;34557;-73
2021/12/04 03:17:42;;;;;;;15.20;7.50;;;;;;;1.26;56.39;99636.50;4470311;32;34152;-73
2021/12/04 03:20:11;;;;;;;14.30;7.53;;;;;;;1.25;56.46;99639.38;4443719;32;34733;-73
2021/12/04 03:22:43;;;;;;;16.25;8.15;;;;;;;1.27;56.10;99627.41;4456467;32;33339;-73
2021/12/04 03:25:12;;;;;;;17.43;8.37;;;;;;;1.12;56.35;99631.59;4444172;32;33717;-73
2021/12/04 03:27:47;;;;;;;17.60;8.65;;;;;;;1.24;56.14;99633.09;4457333;32;34607;-73
2021/12/04 03:41:07;;;;;;;15.70;6.57;;;;;;;1.35;55.52;99590.63;4445330;32;32576;-73
2021/12/04 03:43:34;;;;;;;17.50;6.53;;;;;;;0.78;56.76;99577.31;4456738;32;33252;-73
2021/12/04 03:46:03;;;;;;;17.83;7.23;;;;;;;0.92;56.27;99579.50;4443565;32;33543;-73
2021/12/04 03:51:04;;;;;;;14.80;7.13;;;;;;;1.10;56.16;99573.31;4456290;32;34790;-73
2021/12/04 03:53:32;;;;;;;15.80;7.32;;;;;;;1.13;55.96;99565.75;4443422;32;31813;-73
2021/12/04 03:55:59;;;;;;;14.23;7.17;;;;;;;1.06;56.29;99571.91;4443425;32;32350;-73
2021/12/04 03:58:27;;;;;;;15.57;7.50;;;;;;;1.01;56.45;99571.50;4443214;32;33137;-73
2021/12/04 04:00:56;;;;;;;16.13;8.40;;;;;;;1.06;56.18;99566.50;4443653;32;33876;-73
2021/12/04 04:03:26;;;;;;;15.60;8.27;;;;;;;1.10;56.18;99562.50;4456544;32;33622;-73
2021/12/04 04:05:55;;;;;;;23.50;10.80;;;;;;;1.06;56.08;99564.66;4443466;32;32295;-73
2021/12/04 04:08:22;;;;;;;15.48;8.23;;;;;;;0.89;56.48;99563.59;4443351;32;35325;-73
2021/12/04 04:10:53;;;;;;;19.17;9.17;;;;;;;0.99;56.32;99561.69;4443491;32;33853;-75
2021/12/04 04:13:21;;;;;;;18.70;8.30;;;;;;;1.04;56.14;99561.25;4443794;32;33189;-73
2021/12/04 04:15:49;;;;;;;18.63;8.80;;;;;;;1.06;57.90;99553.84;4443364;32;33623;-75
2021/12/04 04:18:17;;;;;;;18.10;9.33;;;;;;;0.76;56.97;99557.69;4456105;32;35104;-75
2021/12/04 04:20:45;;;;;;;16.33;8.10;;;;;;;0.91;56.58;99553.50;4443116;32;33358;-74
2021/12/04 04:23:12;;;;;;;17.57;8.27;;;;;;;0.78;56.54;99544.88;4443295;32;34242;-74
2021/12/04 04:25:40;;;;;;;14.57;7.57;;;;;;;0.93;56.11;99554.19;4430466;32;33229;-74
2021/12/04 04:28:08;;;;;;;14.27;7.20;;;;;;;1.03;55.71;99553.28;4443109;32;34053;-74
2021/12/04 04:30:37;;;;;;;14.87;8.00;;;;;;;0.93;55.89;99547.94;4443310;32;33615;-74
2021/12/04 04:33:05;;;;;;;13.90;7.05;;;;;;;0.78;56.16;99557.53;4456262;32;33189;-75
2021/12/04 04:35:36;;;;;;;12.80;7.30;;;;;;;0.85;56.10;99562.19;4456040;32;34590;-75
2021/12/04 04:38:17;;;;;;;14.80;7.83;;;;;;;0.84;56.12;99554.25;4443166;32;34519;-74
2021/12/04 05:11:09;;;;;;;14.57;6.93;;;;;;;0.53;56.74;99576.16;4444540;32;33469;-74
2021/12/04 05:13:38;;;;;;;15.80;7.50;;;;;;;0.31;57.21;99563.00;4458025;32;34783;-74
2021/12/04 05:16:14;;;;;;;13.73;6.77;;;;;;;0.49;56.78;99568.50;4442651;32;31675;-74
2021/12/04 05:18:52;;;;;;;14.87;6.43;;;;;;;0.44;56.85;99568.94;4456128;32;34511;-75
2021/12/04 05:21:20;;;;;;;15.90;6.50;;;;;;;0.34;57.28;99562.72;4456413;32;34345;-74
2021/12/04 05:23:50;;;;;;;13.67;7.13;;;;;;;0.54;56.66;99558.94;4442323;32;32700;-75
2021/12/04 05:26:26;;;;;;;14.87;7.00;;;;;;;0.66;56.33;99551.47;4455376;32;33328;-75
2021/12/04 05:28:58;;;;;;;12.17;6.60;;;;;;;0.70;56.37;99543.94;4442519;32;33642;-75
2021/12/04 05:31:27;;;;;;;12.10;6.53;;;;;;;0.60;56.30;99544.00;4455096;32;33881;-75
2021/12/04 05:33:54;;;;;;;15.57;7.60;;;;;;;0.79;56.28;99549.28;4442531;32;32646;-75
2021/12/04 05:36:24;;;;;;;13.73;6.80;;;;;;;0.78;56.14;99561.09;4442420;32;32819;-75
2021/12/04 05:38:52;;;;;;;14.27;7.90;;;;;;;0.77;56.09;99550.44;4442230;32;33117;-75
2021/12/04 05:41:20;;;;;;;16.50;8.55;;;;;;;0.77;56.10;99551.28;4442271;32;34347;-75
2021/12/04 05:43:48;;;;;;;18.27;8.43;;;;;;;0.70;56.41;99552.88;4442100;32;32457;-75
2021/12/04 05:46:18;;;;;;;18.47;9.10;;;;;;;0.63;56.54;99551.81;4442188;32;31776;-75
2021/12/04 05:56:52;;;;;;;18.07;10.13;;;;;;;0.70;56.28;99533.97;4413380;32;32088;-75
2021/12/04 05:59:20;;;;;;;22.95;9.68;;;;;;;0.66;56.43;99543.37;4441823;32;32274;-75
2021/12/04 06:01:47;;;;;;;18.73;9.77;;;;;;;0.58;56.43;99551.41;4441778;32;33050;-75
2021/12/04 06:04:15;;;;;;;16.58;9.00;;;;;;;0.70;56.18;99536.69;4441736;32;32575;-73
2021/12/04 06:06:46;;;;;;;18.77;9.50;;;;;;;0.98;65.97;99540.22;4442014;32;33951;-73
2021/12/04 06:09:13;;;;;;;21.33;9.60;;;;;;;1.01;62.24;99542.63;4441767;32;32375;-73
2021/12/04 06:11:41;;;;;;;21.40;10.57;;;;;;;0.93;59.24;99534.44;4442439;32;33020;-73
2021/12/04 06:14:09;;;;;;;17.35;8.90;;;;;;;0.96;57.69;99532.28;4444151;32;33912;-74
2021/12/04 06:16:36;;;;;;;14.90;8.50;;;;;;;0.82;57.07;99535.47;4444078;32;33159;-73
2021/12/04 06:19:13;;;;;;;18.77;9.73;;;;;;;0.60;57.00;99530.50;4443977;32;33167;-74
2021/12/04 06:24:27;;;;;;;24.67;12.23;;;;;;;0.69;56.34;99532.28;4459138;32;34221;-73
2021/12/04 06:26:55;;;;;;;19.23;10.37;;;;;;;0.62;56.56;99529.34;4444116;32;33323;-73
2021/12/04 06:29:24;;;;;;;22.83;10.57;;;;;;;0.56;56.32;99529.97;4431120;32;33289;-73
2021/12/04 06:31:51;;;;;;;23.50;11.80;;;;;;;0.42;57.46;99526.88;4439830;32;32995;-74
2021/12/04 06:34:19;;;;;;;28.87;14.07;;;;;;;0.55;56.90;99535.50;4441264;32;32548;-73
2021/12/04 06:36:47;;;;;;;38.88;18.95;;;;;;;0.68;56.54;99527.87;4443568;32;31973;-73
2021/12/04 06:39:17;;;;;;;49.70;24.67;;;;;;;0.66;56.49;99536.13;4456652;32;34513;-74
2021/12/04 06:41:45;;;;;;;63.67;27.10;;;;;;;0.64;56.45;99531.91;4456659;32;34426;-73
2021/12/04 06:44:13;;;;;;;61.17;21.67;;;;;;;0.68;56.26;99522.47;4443341;32;33234;-74
2021/12/04 06:46:41;;;;;;;41.75;16.90;;;;;;;0.47;56.50;99530.00;4443458;32;33430;-74
2021/12/04 06:49:15;;;;;;;41.10;20.17;;;;;;;0.48;56.59;99529.00;4456472;32;33751;-73
2021/12/04 06:51:48;;;;;;;41.13;16.65;;;;;;;0.58;56.28;99516.31;4443012;32;32893;-74
2021/12/04 06:54:21;;;;;;;42.30;19.00;;;;;;;0.54;56.62;99526.56;4443392;32;33400;-73
2021/12/04 06:56:49;;;;;;;44.67;17.83;;;;;;;0.58;56.48;99530.66;4431248;32;31620;-74
2021/12/04 06:59:28;;;;;;;36.88;17.30;;;;;;;0.58;56.34;99521.72;4443405;32;33863;-73
2021/12/04 07:01:58;;;;;;;32.90;14.30;;;;;;;0.38;56.82;99520.94;4457697;32;35372;-74
2021/12/04 07:04:34;;;;;;;28.92;12.35;;;;;;;0.44;56.95;99519.50;4443470;32;32668;-73
2021/12/04 07:07:03;;;;;;;26.17;12.10;;;;;;;0.55;56.78;99511.19;4444481;32;31891;-73
2021/12/04 07:09:32;;;;;;;26.60;11.43;;;;;;;0.55;56.83;99500.41;4442696;32;33233;-74
2021/12/04 07:12:00;;;;;;;25.90;13.77;;;;;;;0.55;56.84;99495.84;4443646;32;35289;-75
2021/12/04 07:14:29;;;;;;;39.33;20.43;;;;;;;0.69;56.67;99502.56;4443549;32;32480;-75
2021/12/04 07:17:01;;;;;;;42.28;20.90;;;;;;;0.74;56.78;99505.66;4430703;32;32735;-75
2021/12/04 07:19:30;;;;;;;39.20;20.05;;;;;;;0.71;57.10;99503.28;4443584;32;32147;-74
2021/12/04 07:22:02;;;;;;;57.13;34.30;;;;;;;0.64;57.45;99499.50;4456402;32;34583;-75
2021/12/04 07:24:32;;;;;;;64.60;39.87;;;;;;;0.79;57.21;99500.66;4442459;32;33489;-75
2021/12/04 07:27:00;;;;;;;50.67;29.63;;;;;;;0.87;57.06;99498.06;4443875;32;34139;-75
2021/12/04 07:29:27;;;;;;;44.95;25.95;;;;;;;0.81;57.20;99489.72;4443451;32;34497;-75
2021/12/04 07:31:57;;;;;;;42.17;21.97;;;;;;;0.89;57.24;99479.00;4443548;32;34149;-75
2021/12/04 07:34:25;;;;;;;43.60;20.40;;;;;;;0.92;57.20;99468.75;4455975;32;34635;-75
2021/12/04 07:36:55;;;;;;;40.30;18.23;;;;;;;1.04;57.15;99474.78;4442649;32;33632;-74
2021/12/04 07:39:23;;;;;;;33.77;17.50;;;;;;;0.98;57.32;99478.94;4455958;32;34406;-75
2021/12/04 07:41:53;;;;;;;29.50;14.33;;;;;;;0.95;57.59;99464.88;4443340;32;32562;-75
2021/12/04 07:44:20;;;;;;;32.60;16.07;;;;;;;0.99;57.60;99467.13;4443216;32;32478;-75
2021/12/04 07:46:48;;;;;;;30.03;17.27;;;;;;;0.98;57.68;99464.56;4443583;32;34260;-75
2021/12/04 07:49:16;;;;;;;29.03;16.43;;;;;;;0.94;57.93;99463.19;4443171;32;34526;-74
2021/12/04 07:51:44;;;;;;;36.22;18.75;;;;;;;0.99;57.98;99459.03;4443641;32;33642;-75
2021/12/04 07:54:12;;;;;;;29.80;14.98;;;;;;;1.11;57.91;99453.38;4455521;32;34504;-74
2021/12/04 07:56:40;;;;;;;32.10;14.70;;;;;;;1.14;57.95;99458.50;4443026;32;33200;-75
2021/12/04 07:59:08;;;;;;;25.92;14.20;;;;;;;1.20;58.08;99460.56;4429187;32;32360;-75
2021/12/04 08:01:36;;;;;;;24.35;13.62;;;;;;;1.14;58.22;99464.75;4442735;32;34346;-75
2021/12/04 08:04:04;;;;;;;31.12;18.10;;;;;;;1.23;58.31;99468.37;4442937;32;33334;-75
2021/12/04 08:06:35;;;;;;;41.37;21.10;;;;;;;1.27;58.46;99459.78;4443199;32;31442;-74
2021/12/04 08:09:06;;;;;;;38.17;19.55;;;;;;;1.06;59.06;99464.66;4443118;32;32340;-75
2021/12/04 08:11:34;;;;;;;32.03;17.93;;;;;;;1.21;58.94;99464.97;4455342;32;35234;-75
2021/12/04 08:14:02;;;;;;;35.97;18.60;;;;;;;1.30;58.82;99469.44;4443074;32;33786;-75
2021/12/04 08:16:33;;;;;;;29.00;16.42;;;;;;;1.30;59.00;99466.75;4455828;32;34055;-75
2021/12/04 08:19:02;;;;;;;31.93;17.43;;;;;;;1.52;58.70;99468.09;4455698;32;33425;-75
2021/12/04 08:21:34;;;;;;;30.90;16.73;;;;;;;1.60;58.60;99449.22;4456031;32;34386;-75
2021/12/04 08:24:03;;;;;;;37.37;19.03;;;;;;;1.61;58.84;99459.87;4443087;32;32491;-75
2021/12/04 08:26:32;;;;;;;36.33;20.20;;;;;;;1.60;58.84;99469.00;4455885;32;34222;-75
2021/12/04 08:29:02;;;;;;;35.57;19.27;;;;;;;1.71;58.73;99458.94;4442742;32;32154;-75
2021/12/04 08:31:31;;;;;;;25.80;13.63;;;;;;;1.79;59.17;99464.41;4433808;32;33314;-77
2021/12/04 08:33:58;;;;;;;32.40;18.73;;;;;;;1.97;66.25;99457.06;4425352;32;32659;-75
2021/12/04 08:36:26;;;;;;;59.60;28.50;;;;;;;2.04;64.44;99462.69;4427141;32;32613;-75
2021/12/04 08:38:54;;;;;;;50.58;25.90;;;;;;;2.17;62.85;99455.84;4431132;32;33395;-75
2021/12/04 08:41:22;;;;;;;28.80;15.10;;;;;;;2.23;61.92;99451.63;4432406;32;35455;-75
2021/12/04 08:43:52;;;;;;;34.13;18.10;;;;;;;2.26;61.36;99451.31;4447654;32;34940;-75
2021/12/04 08:46:22;;;;;;;33.60;17.50;;;;;;;2.42;60.25;99445.13;4435860;32;33694;-75
2021/12/04 08:48:54;;;;;;;35.05;17.52;;;;;;;2.84;61.23;99434.22;4427093;32;34135;-76
2021/12/04 08:51:23;;;;;;;29.02;15.90;;;;;;;2.92;62.86;99437.81;4425074;32;34386;-75
2021/12/04 08:53:51;;;;;;;29.17;16.08;;;;;;;3.04;61.63;99440.22;4424922;32;34145;-75
2021/12/04 08:56:19;;;;;;;28.45;16.33;;;;;;;3.08;60.74;99442.41;4416241;32;31841;-76
2021/12/04 08:58:47;;;;;;;30.65;15.45;;;;;;;3.19;60.58;99435.81;4411765;32;33739;-76
2021/12/04 09:01:23;;;;;;;27.75;16.37;;;;;;;3.20;60.50;99442.94;4423511;32;32985;-75
2021/12/04 09:03:59;;;;;;;26.97;15.43;;;;;;;3.32;61.28;99438.84;4424490;32;33838;-75
2021/12/04 09:06:27;;;;;;;28.87;14.60;;;;;;;3.38;60.30;99427.34;4436624;32;33438;-76
2021/12/04 09:08:58;;;;;;;28.55;14.93;;;;;;;3.50;60.03;99425.12;4425013;32;33383;-76
2021/12/04 09:11:29;;;;;;;28.87;15.53;;;;;;;3.58;59.38;99419.69;4434812;32;34502;-76
2021/12/04 09:13:57;;;;;;;29.90;17.35;;;;;;;3.67;59.19;99425.97;4425394;32;33959;-76
2021/12/04 09:16:25;;;;;;;67.10;32.17;;;;;;;3.93;58.69;99418.44;4422672;32;33694;-75
2021/12/04 09:18:55;;;;;;;66.60;34.63;;;;;;;3.92;60.13;99416.75;4439444;32;33543;-77
2021/12/04 09:21:27;;;;;;;42.35;19.92;;;;;;;4.04;59.72;99409.06;4439943;32;34191;-75
2021/12/04 09:24:13;;;;;;;29.90;16.02;;;;;;;4.10;59.01;99411.09;4439546;32;34361;-76
2021/12/04 09:32:16;;;;;;;28.92;15.10;;;;;;;5.23;68.75;99382.41;4439826;32;35303;-75
2021/12/04 10:02:44;;;;;;;31.33;16.90;;;;;;;5.49;53.54;99358.38;4417472;32;34649;-75
2021/12/04 10:13:52;;;;;;;27.40;15.23;;;;;;;5.37;53.12;99327.19;4441267;32;32588;-75
2021/12/04 10:24:32;;;;;;;27.92;14.95;;;;;;;5.17;53.27;99305.13;4445539;32;32565;-75
2021/12/04 10:32:55;;;;;;;29.15;16.10;;;;;;;4.69;53.09;99298.19;4445741;32;31957;-75
2021/12/04 10:35:23;;;;;;;31.48;16.08;;;;;;;5.08;52.81;99294.50;4444383;32;34346;-75
2021/12/04 10:37:59;;;;;;;31.23;15.82;;;;;;;5.16;62.66;99289.00;4440487;32;34258;-75
2021/12/04 10:40:36;;;;;;;26.85;14.73;;;;;;;5.83;64.95;99275.34;4448404;32;34136;-75
2021/12/04 10:43:20;;;;;;;24.15;13.57;;;;;;;5.75;54.37;99276.28;4427923;32;32524;-75
2021/12/04 10:45:54;;;;;;;42.40;23.20;;;;;;;5.96;52.67;99270.06;4438208;32;33435;-74
2021/12/04 10:48:29;;;;;;;28.42;16.48;;;;;;;5.84;51.45;99264.25;4450912;32;34406;-75
2021/12/04 10:53:49;;;;;;;23.23;14.68;;;;;;;5.65;50.82;99261.25;4450352;32;33915;-75
2021/12/04 10:59:16;;;;;;;23.67;13.07;;;;;;;5.40;50.53;99247.91;4439404;32;33149;-75
2021/12/04 11:02:03;;;;;;;25.30;12.45;;;;;;;5.42;49.69;99247.72;4427821;32;32504;-75
2021/12/04 11:07:33;;;;;;;22.45;12.98;;;;;;;5.38;49.42;99246.41;4441525;32;32192;-74
2021/12/04 11:19:09;;;;;;;20.10;11.38;;;;;;;5.15;48.75;99222.87;4458467;32;33732;-75
2021/12/04 11:35:29;;;;;;;;;;;;;;;5.17;49.51;99195.47;4458830;32;34760;-74
2021/12/04 11:38:13;;;;;;;24.08;12.50;;;;;;;5.12;48.93;99187.03;4446897;32;32485;-75
2021/12/04 11:43:55;;;;;;;20.40;11.15;;;;;;;5.24;47.10;99178.19;4389788;32;34377;-74
2021/12/04 11:46:41;;;;;;;23.80;10.90;;;;;;;4.99;48.09;99167.78;4391123;32;34708;-74
2021/12/04 11:49:33;;;;;;;19.15;9.85;;;;;;;5.15;49.10;99175.78;4408180;32;33912;-73
2021/12/04 11:52:11;;;;;;;20.60;10.68;;;;;;;5.38;46.98;99165.63;4412396;32;33199;-75
2021/12/04 11:54:49;;;;;;;17.70;8.95;;;;;;;5.13;48.15;99156.09;4425520;32;34297;-74
2021/12/04 11:57:29;;;;;;;20.25;9.63;;;;;;;5.32;47.31;99162.81;4425508;32;32635;-74
2021/12/04 12:00:28;;;;;;;17.48;9.30;;;;;;;5.39;47.62;99163.75;4425822;32;33638;-74
2021/12/04 12:03:29;;;;;;;19.27;8.80;;;;;;;5.39;46.93;99167.31;4425674;32;33625;-75
2021/12/04 12:06:00;;;;;;;15.48;7.80;;;;;;;5.22;47.07;99158.50;4412175;32;33815;-75
2021/12/04 12:08:42;;;;;;;17.42;9.68;;;;;;;5.18;47.60;99140.91;4413046;32;33794;-74
2021/12/04 12:11:25;;;;;;;26.12;14.82;;;;;;;5.19;47.02;99147.19;4412381;32;31773;-74
2021/12/04 12:13:59;;;;;;;17.73;8.85;;;;;;;5.21;46.85;99153.25;4412847;32;33236;-75
2021/12/04 12:16:36;;;;;;;18.73;9.05;;;;;;;5.12;47.56;99151.69;4413668;32;32931;-75
2021/12/04 12:19:12;;;;;;;22.02;9.70;;;;;;;5.30;46.91;99138.50;4453513;32;34127;-74
2021/12/04 12:21:53;;;;;;;14.20;8.75;;;;;;;5.51;52.07;99152.19;4441040;32;31918;-75
2021/12/04 12:38:33;;;;;;;20.27;11.15;;;;;;;5.58;45.70;99139.53;4441914;32;33601;-75
2021/12/04 12:41:27;;;;;;;22.00;11.15;;;;;;;5.84;55.56;99135.44;4453278;32;33734;-75
2021/12/04 12:44:13;;;;;;;21.23;11.00;;;;;;;5.73;49.42;99127.75;4468638;32;32991;-75
2021/12/04 12:46:46;;;;;;;18.17;10.00;;;;;;;5.74;47.75;99113.09;4455685;32;33811;-75
2021/12/04 12:49:17;;;;;;;32.45;15.23;;;;;;;5.57;47.60;99107.03;4455291;32;34617;-75
2021/12/04 12:52:23;;;;;;;23.95;13.30;;;;;;;5.56;47.90;99108.91;4455395;32;32898;-75
2021/12/04 12:55:01;;;;;;;24.02;12.57;;;;;;;5.54;47.93;99108.28;4419141;32;33716;-75
2021/12/04 12:57:39;;;;;;;19.58;11.38;;;;;;;5.33;48.49;99116.37;4439688;32;32225;-75
2021/12/04 13:14:13;;;;;;;22.85;12.30;;;;;;;5.19;49.52;99109.09;4452401;32;34615;-75
2021/12/04 13:16:50;;;;;;;24.73;12.20;;;;;;;5.27;48.22;99108.97;4439425;32;33441;-75
2021/12/04 13:19:21;;;;;;;20.60;11.55;;;;;;;5.34;48.04;99101.72;4426619;32;32261;-75
2021/12/04 13:21:55;;;;;;;22.77;12.77;;;;;;;5.16;48.96;99107.59;4440888;32;34394;-75
2021/12/04 13:24:30;;;;;;;23.25;12.23;;;;;;;5.23;48.98;99105.78;4441316;32;32551;-75
2021/12/04 13:29:59;;;;;;;35.60;15.90;;;;;;;5.35;49.30;99102.56;4463635;32;33994;-75
2021/12/04 13:32:32;;;;;;;35.15;20.20;;;;;;;5.15;50.07;99103.19;4456072;32;32963;-75
2021/12/04 13:35:21;;;;;;;28.42;15.85;;;;;;;5.25;49.83;99102.88;4456606;32;32999;-75
2021/12/04 13:37:51;;;;;;;26.15;16.15;;;;;;;5.20;49.94;99089.03;4433740;32;31736;-75
2021/12/04 13:40:22;;;;;;;27.15;15.30;;;;;;;5.03;49.69;99085.66;4441255;32;33149;-75
2021/12/04 13:42:52;;;;;;;25.58;14.55;;;;;;;5.29;49.54;99088.69;4453846;32;34423;-75
2021/12/04 13:45:21;;;;;;;29.85;14.82;;;;;;;5.19;50.23;99081.91;4452319;32;33866;-75
2021/12/04 13:47:54;;;;;;;53.45;28.77;;;;;;;5.30;50.26;99070.50;4441987;32;34315;-75
2021/12/04 13:53:15;;;;;;;20.70;11.60;;;;;;;5.32;49.41;99084.75;4454436;32;34489;-75
2021/12/04 13:55:47;;;;;;;26.70;16.00;;;;;;;5.28;48.70;99070.69;4441369;32;32888;-76
2021/12/04 13:58:15;;;;;;;27.95;16.17;;;;;;;5.02;49.99;99064.09;4445047;32;32050;-75
2021/12/04 14:00:44;;;;;;;20.80;11.63;;;;;;;5.36;49.15;99052.56;4450539;32;32346;-75
2021/12/04 14:03:13;;;;;;;22.00;10.75;;;;;;;5.36;48.68;99055.28;4441645;32;34615;-75
2021/12/04 14:05:40;;;;;;;21.08;12.02;;;;;;;5.21;48.52;99030.84;4454131;32;33731;-75
2021/12/04 14:08:10;;;;;;;16.73;7.80;;;;;;;5.21;48.38;99018.06;4441289;32;33255;-75
2021/12/04 14:10:42;;;;;;;17.27;7.85;;;;;;;5.26;48.15;99015.63;4444314;32;33655;-75
2021/12/04 14:13:11;;;;;;;14.63;7.78;;;;;;;4.93;47.90;99009.81;4453943;32;35274;-75
2021/12/04 14:15:45;;;;;;;22.27;9.98;;;;;;;4.92;47.72;98997.25;4441050;32;33451;-75
2021/12/04 14:18:19;;;;;;;18.58;10.35;;;;;;;4.93;47.95;99000.81;4456199;32;33125;-75
2021/12/04 14:20:57;;;;;;;19.87;9.50;;;;;;;4.94;48.23;99005.22;4450897;32;34559;-75
2021/12/04 14:23:25;;;;;;;14.23;8.18;;;;;;;4.96;47.62;99000.44;4440473;32;33996;-76
2021/12/04 14:25:54;;;;;;;17.15;8.75;;;;;;;4.99;47.49;99007.34;4447775;32;32556;-75
2021/12/04 14:28:26;;;;;;;17.10;8.45;;;;;;;4.93;47.12;99004.38;4455721;32;33200;-76
2021/12/04 14:30:55;;;;;;;15.07;7.90;;;;;;;5.02;47.42;99013.25;4468880;32;33335;-75
2021/12/04 14:33:25;;;;;;;22.42;12.63;;;;;;;4.94;47.47;99003.34;4442849;32;32992;-76
2021/12/04 14:35:54;;;;;;;47.88;21.40;;;;;;;4.89;48.03;99005.78;4449449;32;34626;-75
2021/12/04 14:38:24;;;;;;;37.63;20.17;;;;;;;5.00;47.95;99014.50;4442865;32;33778;-76
2021/12/04 14:40:57;;;;;;;32.92;17.55;;;;;;;5.02;48.61;99017.84;4450874;32;33142;-75
2021/12/04 14:43:28;;;;;;;24.63;13.65;;;;;;;5.04;48.87;99013.06;4440633;32;33405;-75
2021/12/04 14:45:59;;;;;;;17.67;10.68;;;;;;;4.94;49.12;99011.50;4440950;32;32428;-75
2021/12/04 14:48:33;;;;;;;17.40;9.02;;;;;;;4.85;49.41;99014.50;4453488;32;31775;-75
2021/12/04 14:51:05;;;;;;;15.68;8.23;;;;;;;4.77;49.80;99006.44;4453610;32;32164;-76
2021/12/04 14:53:39;;;;;;;;;;;;;;;4.83;49.90;99002.97;4453799;32;34068;-75
2021/12/04 14:56:09;;;;;;;17.00;7.97;;;;;;;4.74;50.37;99010.37;4453557;32;34579;-75
2021/12/04 14:58:37;;;;;;;16.25;8.32;;;;;;;4.78;50.31;99000.81;4454811;32;33381;-75
2021/12/04 15:01:08;;;;;;;14.98;7.62;;;;;;;4.69;50.79;99001.94;4453494;32;33729;-75